Time;durP1;ratioP1;P1;durP2;ratioP2;P2;SDS_P1;SDS_P2;PMS_P1;PMS_P2;Temp;Humidity;BMP_temperature;BMP_pressure;BME280_temperature;BME280_humidity;BME280_pressure;Samples;Min_cycle;Max_cycle;Signal;HPM_P1;HPM_P2
2023/02/11 00:00:57;;;;;;;18.98;13.15;;;7.20;99.90;;;6.25;100.00;103420.28;4170285;28;20055;-79
2023/02/11 00:02:58;;;;;;;18.00;12.05;;;7.20;99.90;;;6.29;100.00;103420.09;4170113;28;20032;-79
2023/02/11 00:05:02;;;;;;;18.73;12.57;;;7.20;99.90;;;6.28;100.00;103415.75;4168090;28;20030;-79
2023/02/11 00:07:03;;;;;;;22.05;13.73;;;7.20;99.90;;;6.30;100.00;103413.91;4155237;28;20036;-79
2023/02/11 00:09:05;;;;;;;23.05;14.40;;;7.20;99.90;;;6.29;100.00;103414.84;4153574;28;20030;-79
2023/02/11 00:11:06;;;;;;;24.17;14.70;;;7.20;99.90;;;6.26;100.00;103404.50;4154732;28;20033;-79
2023/02/11 00:13:07;;;;;;;22.60;13.43;;;7.20;99.90;;;6.30;100.00;103424.41;4154909;28;20478;-79
2023/02/11 00:15:09;;;;;;;18.63;12.57;;;7.20;99.90;;;6.27;100.00;103416.69;4153652;28;20030;-79
2023/02/11 00:17:09;;;;;;;21.80;13.88;;;7.20;99.90;;;6.20;100.00;103409.13;4153532;28;20037;-79
2023/02/11 00:19:10;;;;;;;18.95;13.15;;;7.20;99.90;;;6.12;100.00;103405.03;4149728;28;20095;-79
2023/02/11 00:21:19;;;;;;;17.20;13.00;;;7.10;99.90;;;6.12;100.00;103406.84;4154889;28;20050;-79
2023/02/11 00:23:20;;;;;;;30.33;16.58;;;7.00;99.90;;;6.06;100.00;103407.09;4153416;28;20034;-79
2023/02/11 00:25:20;;;;;;;29.67;18.02;;;7.00;99.90;;;6.10;100.00;103416.50;4154657;28;20069;-79
2023/02/11 00:27:22;;;;;;;23.35;16.35;;;7.00;99.90;;;6.04;100.00;103408.91;4155269;28;20448;-79
2023/02/11 00:29:23;;;;;;;25.88;18.42;;;7.00;99.90;;;6.00;100.00;103412.56;4153175;28;20034;-79
2023/02/11 00:31:24;;;;;;;28.48;17.95;;;7.00;99.90;;;6.00;100.00;103425.66;4181804;28;20025;-79
2023/02/11 00:33:25;;;;;;;28.95;17.15;;;6.90;99.90;;;5.97;100.00;103415.31;4158591;28;20066;-79
2023/02/11 00:35:26;;;;;;;21.45;15.35;;;6.90;99.90;;;5.89;100.00;103406.88;4154422;28;20026;-79
2023/02/11 00:37:28;;;;;;;30.02;17.48;;;6.80;99.90;;;5.87;100.00;103404.34;4153266;28;20034;-79
2023/02/11 00:39:29;;;;;;;28.15;18.25;;;6.80;99.90;;;5.91;100.00;103415.56;4153334;28;20074;-79
2023/02/11 00:41:30;;;;;;;33.25;20.90;;;6.80;99.90;;;5.89;100.00;103412.97;4153084;28;20022;-79
2023/02/11 00:43:31;;;;;;;28.00;18.85;;;6.80;99.90;;;5.90;100.00;103409.47;4152997;28;20025;-79
2023/02/11 00:45:32;;;;;;;25.83;17.15;;;6.80;99.90;;;5.95;100.00;103406.63;4153342;28;20022;-79
2023/02/11 00:47:32;;;;;;;28.02;18.58;;;6.90;99.90;;;5.98;100.00;103407.38;4156430;28;20449;-79
2023/02/11 00:49:33;;;;;;;23.50;16.13;;;6.90;99.90;;;5.94;100.00;103370.91;4160124;28;20034;-79
2023/02/11 00:51:34;;;;;;;27.95;18.48;;;6.90;99.90;;;5.92;100.00;103336.03;4152952;28;20022;-79
2023/02/11 00:53:36;;;;;;;27.75;17.35;;;6.90;99.90;;;5.95;100.00;103372.59;4156419;28;20548;-79
2023/02/11 00:55:37;;;;;;;28.58;17.13;;;6.90;99.90;;;5.95;100.00;103415.34;4159932;28;20057;-79
2023/02/11 00:57:38;;;;;;;35.60;20.27;;;6.90;99.90;;;5.95;100.00;103407.50;4170484;28;20543;-79
2023/02/11 00:59:39;;;;;;;26.85;19.25;;;6.90;99.90;;;5.94;100.00;103358.63;4169100;28;20056;-79
2023/02/11 01:01:40;;;;;;;28.13;18.42;;;6.90;99.90;;;5.98;100.00;103394.28;4185603;28;20507;-79
2023/02/11 01:03:41;;;;;;;25.73;16.58;;;6.90;99.90;;;5.98;100.00;103393.41;4170406;28;20053;-79
2023/02/11 01:05:42;;;;;;;26.10;18.27;;;6.90;99.90;;;5.98;100.00;103375.94;4168989;28;20021;-79
2023/02/11 01:07:43;;;;;;;27.40;18.65;;;6.90;99.90;;;5.97;100.00;103376.00;4170253;28;20033;-79
2023/02/11 01:09:44;;;;;;;26.25;17.98;;;6.90;99.90;;;5.93;100.00;103363.94;4169247;28;20100;-79
2023/02/11 01:11:45;;;;;;;30.45;19.80;;;6.90;99.90;;;5.89;100.00;103370.22;4170464;28;20111;-79
2023/02/11 01:13:47;;;;;;;25.95;19.67;;;6.80;99.90;;;5.86;100.00;103362.47;4170288;28;20370;-79
2023/02/11 01:15:48;;;;;;;26.70;19.42;;;6.80;99.90;;;5.81;100.00;103396.69;4170071;28;20120;-79
2023/02/11 01:17:50;;;;;;;31.80;21.10;;;6.80;99.90;;;5.79;100.00;103376.72;4168980;28;20045;-79
2023/02/11 01:19:50;;;;;;;34.75;22.13;;;6.80;99.90;;;5.74;100.00;103355.06;4164081;28;20026;-79
2023/02/11 01:21:51;;;;;;;34.22;19.70;;;6.70;99.90;;;5.74;100.00;103403.06;4168882;28;20104;-79
2023/02/11 01:23:52;;;;;;;33.90;22.17;;;6.70;99.90;;;5.71;100.00;103397.94;4168800;28;20524;-79
2023/02/11 01:25:53;;;;;;;32.10;21.75;;;6.70;99.90;;;5.63;100.00;103386.94;4169853;28;20022;-79
2023/02/11 01:27:54;;;;;;;30.10;20.52;;;6.60;99.90;;;5.51;100.00;103380.41;4165023;28;20057;-79
2023/02/11 01:29:55;;;;;;;35.78;22.08;;;6.50;99.90;;;5.39;100.00;103373.03;4153826;28;20041;-79
2023/02/11 01:31:56;;;;;;;34.85;22.70;;;6.40;99.90;;;5.24;100.00;103365.75;4160977;28;20060;-79
2023/02/11 01:33:57;;;;;;;38.38;22.52;;;6.30;99.90;;;5.09;100.00;103368.94;4165739;28;20025;-79
2023/02/11 01:36:05;;;;;;;43.42;24.65;;;6.10;99.90;;;4.95;100.00;103365.97;4153634;28;20082;-80
2023/02/11 01:38:13;;;;;;;35.08;22.92;;;6.00;99.90;;;4.81;100.00;103365.59;4152499;28;20547;-79
2023/02/11 01:40:16;;;;;;;36.95;23.48;;;5.90;99.90;;;4.69;100.00;103374.75;4152289;28;20037;-80
2023/02/11 01:42:21;;;;;;;38.92;24.30;;;5.70;99.90;;;4.59;100.00;103365.53;4155969;28;20029;-79
2023/02/11 01:44:36;;;;;;;34.53;22.98;;;5.60;99.90;;;4.52;100.00;103365.78;4169075;28;20056;-79
2023/02/11 01:46:37;;;;;;;33.63;22.52;;;5.50;99.90;;;4.50;100.00;103370.22;4168807;28;20040;-79
2023/02/11 01:48:44;;;;;;;38.47;24.73;;;5.40;99.90;;;4.40;100.00;103367.91;4169361;28;20063;-80
2023/02/11 01:50:49;;;;;;;42.90;27.08;;;5.40;99.90;;;4.34;100.00;103365.50;4168592;28;20525;-79
2023/02/11 01:52:49;;;;;;;49.47;31.10;;;5.30;99.90;;;4.25;100.00;103363.22;4168625;28;20116;-79
2023/02/11 01:57:26;;;;;;;42.38;27.17;;;5.10;99.90;;;4.10;100.00;103362.84;4168835;28;20094;-79
2023/02/11 01:59:45;;;;;;;42.55;27.35;;;5.10;99.90;;;4.02;100.00;103362.25;4168384;28;20071;-79
2023/02/11 02:01:58;;;;;;;45.58;26.77;;;5.00;99.90;;;3.97;100.00;103367.66;4152828;28;20029;-79
2023/02/11 02:04:02;;;;;;;46.80;29.73;;;4.90;99.90;;;3.88;100.00;103362.72;4168237;28;20045;-79
2023/02/11 02:06:18;;;;;;;43.72;27.75;;;4.80;99.90;;;3.79;100.00;103365.63;4172486;28;20029;-79
2023/02/11 02:08:38;;;;;;;40.05;22.92;;;4.80;99.90;;;3.75;100.00;103370.09;4156489;28;20029;-79
2023/02/11 02:10:45;;;;;;;33.60;22.00;;;4.70;99.90;;;3.66;100.00;103367.75;4168337;28;20030;-79
2023/02/11 02:12:45;;;;;;;33.20;21.08;;;4.60;99.90;;;3.63;100.00;103367.84;4163475;28;20109;-79
2023/02/11 02:14:46;;;;;;;35.08;21.55;;;4.60;99.90;;;3.50;100.00;103353.47;4159584;28;20069;-79
2023/02/11 02:16:47;;;;;;;31.55;20.73;;;4.50;99.90;;;3.48;100.00;103364.84;4152891;28;20081;-79
2023/02/11 02:19:19;;;;;;;31.70;20.52;;;4.40;99.90;;;3.39;100.00;103358.16;4150913;28;20034;-79
2023/02/11 02:21:56;;;;;;;35.47;22.05;;;4.40;99.90;;;3.29;100.00;103360.19;4157431;28;20106;-79
2023/02/11 02:24:21;;;;;;;33.55;21.30;;;4.30;99.90;;;3.20;100.00;103357.84;4169040;28;20124;-80
2023/02/11 02:27:07;;;;;;;34.83;20.52;;;4.20;99.90;;;3.11;100.00;103363.31;4158860;28;20037;-79
2023/02/11 02:29:35;;;;;;;28.65;18.65;;;4.10;99.90;;;3.01;100.00;103355.81;4153913;28;20037;-79
2023/02/11 02:32:22;;;;;;;29.25;19.48;;;4.00;99.90;;;3.00;100.00;103349.75;4157631;28;20021;-79
2023/02/11 02:35:01;;;;;;;32.50;20.50;;;3.90;99.90;;;2.92;100.00;103338.69;4155303;28;20026;-79
2023/02/11 02:37:26;;;;;;;27.23;18.48;;;3.90;99.90;;;2.88;100.00;103347.50;4163737;28;20033;-79
2023/02/11 02:39:34;;;;;;;30.02;19.50;;;3.80;99.90;;;2.84;100.00;103342.41;4151712;28;20022;-79
2023/02/11 02:41:38;;;;;;;31.50;19.52;;;3.80;99.90;;;2.79;100.00;103343.38;4151559;28;20033;-79
2023/02/11 02:43:50;;;;;;;27.90;19.77;;;3.80;99.90;;;2.76;100.00;103342.63;4151927;28;20026;-79
2023/02/11 02:45:51;;;;;;;29.75;21.08;;;3.70;99.90;;;2.70;100.00;103335.81;4167895;28;20521;-79
2023/02/11 02:47:53;;;;;;;27.58;19.35;;;3.70;99.90;;;2.66;100.00;103333.31;4151219;28;20037;-79
2023/02/11 02:49:54;;;;;;;34.00;21.00;;;3.60;99.90;;;2.61;100.00;103335.22;4152345;28;20081;-79
2023/02/11 02:52:23;;;;;;;27.30;21.20;;;3.60;99.90;;;2.62;100.00;103335.19;4151041;28;20030;-79
2023/02/11 02:55:05;;;;;;;24.80;18.27;;;3.60;99.90;;;2.62;100.00;103327.38;4157192;28;20112;-79
2023/02/11 02:57:37;;;;;;;30.08;19.05;;;3.50;99.90;;;2.57;100.00;103321.41;4151041;28;20034;-79
2023/02/11 03:00:02;;;;;;;27.38;18.85;;;3.60;99.90;;;2.54;100.00;103323.28;4163171;28;20029;-79
2023/02/11 03:02:38;;;;;;;30.67;19.45;;;3.50;99.90;;;2.50;100.00;103319.03;4163786;28;20022;-79
2023/02/11 03:05:35;;;;;;;30.02;19.02;;;3.50;99.90;;;2.47;100.00;103322.56;4159523;28;20091;-79
2023/02/11 03:07:42;;;;;;;;;;;3.40;99.90;;;2.43;100.00;103310.50;4130215;28;20034;-78
2023/02/11 03:10:04;;;;;;;27.75;19.38;;;3.40;99.90;;;2.39;100.00;103300.22;4152230;28;19935;-79
2023/02/11 03:12:08;;;;;;;27.52;18.52;;;3.40;99.90;;;2.40;100.00;103304.53;4151232;28;20030;-79
2023/02/11 03:14:13;;;;;;;26.23;18.15;;;3.40;99.90;;;2.36;100.00;103300.31;4155308;28;20586;-79
2023/02/11 03:16:22;;;;;;;28.50;20.17;;;3.30;99.90;;;2.38;100.00;103293.31;4150087;28;20030;-79
2023/02/11 03:18:27;;;;;;;31.80;20.35;;;3.30;99.90;;;2.35;100.00;103294.25;4162709;28;20375;-79
2023/02/11 03:20:34;;;;;;;28.20;20.60;;;3.30;99.90;;;2.38;100.00;103293.31;4151100;28;20112;-79
2023/02/11 03:22:57;;;;;;;29.80;20.38;;;3.30;99.90;;;2.39;100.00;103285.44;4151019;28;20396;-79
2023/02/11 03:25:00;;;;;;;31.20;19.42;;;3.30;99.90;;;2.35;100.00;103282.97;4154891;28;20046;-79
2023/02/11 03:27:16;;;;;;;33.47;20.25;;;3.30;99.90;;;2.36;100.00;103277.69;4151001;28;20036;-79
2023/02/11 03:29:50;;;;;;;27.75;18.67;;;3.20;99.90;;;2.32;100.00;103286.50;4155376;28;20034;-79
2023/02/11 03:32:27;;;;;;;27.25;17.73;;;3.30;99.90;;;2.24;100.00;103289.31;4170901;28;20021;-79
2023/02/11 03:35:02;;;;;;;25.45;17.10;;;3.20;99.90;;;2.12;100.00;103283.59;4156025;28;20037;-79
2023/02/11 03:37:52;;;;;;;29.70;18.60;;;3.10;99.90;;;2.04;100.00;103286.38;4155252;28;20076;-79
2023/02/11 03:40:13;;;;;;;32.33;19.13;;;3.00;99.90;;;1.99;100.00;103288.25;4115368;28;20426;-79
2023/02/11 03:42:15;;;;;;;28.90;18.05;;;3.00;99.90;;;1.96;100.00;103285.72;4117947;28;20054;-79
2023/02/11 03:44:17;;;;;;;29.80;18.60;;;3.00;99.90;;;1.98;100.00;103291.72;4111269;28;20035;-79
2023/02/11 03:46:27;;;;;;;30.90;18.90;;;3.00;99.90;;;1.91;100.00;103291.94;4167470;28;20218;-79
2023/02/11 03:48:48;;;;;;;29.42;18.42;;;2.90;99.90;;;1.82;100.00;103285.22;4153839;28;20029;-79
2023/02/11 03:50:52;;;;;;;28.13;18.55;;;2.90;99.90;;;1.75;100.00;103294.06;4154310;28;20037;-79
2023/02/11 03:52:54;;;;;;;28.23;17.45;;;2.80;99.90;;;1.67;100.00;103294.22;4154115;28;20432;-79
2023/02/11 03:54:59;;;;;;;27.33;19.20;;;2.70;99.90;;;1.57;100.00;103278.88;4167373;28;20025;-79
2023/02/11 03:57:01;;;;;;;31.70;19.33;;;2.70;99.90;;;1.54;100.00;103285.03;4186606;28;20036;-79
2023/02/11 03:59:02;;;;;;;24.25;18.48;;;2.60;99.90;;;1.53;100.00;103290.25;4170437;28;20021;-79
2023/02/11 04:01:04;;;;;;;28.48;19.38;;;2.50;99.90;;;1.48;100.00;103276.50;4170303;28;20099;-79
2023/02/11 04:03:06;;;;;;;30.17;19.75;;;2.50;99.90;;;1.47;100.00;103277.38;4171060;28;20104;-79
2023/02/11 04:05:13;;;;;;;31.48;20.23;;;2.50;99.90;;;1.42;100.00;103282.72;4167093;28;20029;-79
2023/02/11 04:07:14;;;;;;;32.80;21.08;;;2.40;99.90;;;1.39;100.00;103274.13;4154856;28;20033;-79
2023/02/11 04:09:16;;;;;;;31.40;20.23;;;2.40;99.90;;;1.39;100.00;103274.97;4153797;28;20504;-79
2023/02/11 04:11:17;;;;;;;29.48;20.02;;;2.40;99.90;;;1.43;100.00;103281.84;4168629;28;20029;-79
2023/02/11 04:13:18;;;;;;;32.67;20.33;;;2.40;99.90;;;1.40;100.00;103266.28;4153762;28;20069;-79
2023/02/11 04:15:19;;;;;;;29.63;20.48;;;2.40;99.90;;;1.42;100.00;103271.44;4166521;28;20025;-79
2023/02/11 04:17:20;;;;;;;30.25;19.65;;;2.40;99.90;;;1.38;100.00;103267.19;4153424;28;20049;-79
2023/02/11 04:19:21;;;;;;;24.90;18.38;;;2.40;99.90;;;1.41;100.00;103272.31;4170794;28;20025;-79
2023/02/11 04:21:22;;;;;;;24.55;18.23;;;2.40;99.90;;;1.41;100.00;103275.78;4171200;28;20079;-79
2023/02/11 04:23:22;;;;;;;25.55;17.40;;;2.40;99.90;;;1.33;100.00;103269.91;4170942;28;20105;-79
2023/02/11 04:25:25;;;;;;;27.33;18.08;;;2.40;99.90;;;1.32;100.00;103278.59;4159078;28;20041;-79
2023/02/11 04:27:25;;;;;;;29.80;20.23;;;2.30;99.90;;;1.27;100.00;103270.06;4155653;28;20034;-79
2023/02/11 04:29:27;;;;;;;28.95;19.60;;;2.30;99.90;;;1.27;100.00;103275.25;4170045;28;20040;-79
2023/02/11 04:31:28;;;;;;;29.38;18.75;;;2.30;99.90;;;1.26;100.00;103272.69;4171039;28;20018;-79
2023/02/11 04:33:28;;;;;;;29.40;19.17;;;2.20;99.90;;;1.22;100.00;103260.66;4159589;28;20034;-79
2023/02/11 04:35:29;;;;;;;32.45;21.83;;;2.20;99.90;;;1.20;100.00;103270.22;4167236;28;20026;-79
2023/02/11 04:37:30;;;;;;;36.45;21.67;;;2.20;99.90;;;1.16;100.00;103268.59;4154454;28;20030;-79
2023/02/11 04:39:31;;;;;;;33.15;22.65;;;2.20;99.90;;;1.17;100.00;103267.69;4153334;28;20552;-79
2023/02/11 04:41:32;;;;;;;29.88;21.10;;;2.20;99.90;;;1.19;100.00;103263.31;4153724;28;20037;-79
2023/02/11 04:43:33;;;;;;;33.42;21.58;;;2.20;99.90;;;1.19;100.00;103276.31;4153072;28;20105;-79
2023/02/11 04:45:34;;;;;;;30.67;21.20;;;2.20;99.90;;;1.12;100.00;103257.41;4163457;28;20030;-79
2023/02/11 04:47:36;;;;;;;24.88;18.17;;;2.20;99.90;;;1.13;100.00;103272.13;4160408;28;20029;-79
2023/02/11 04:49:37;;;;;;;25.77;18.98;;;2.10;99.90;;;1.06;100.00;103271.41;4170496;28;20554;-79
2023/02/11 04:51:38;;;;;;;26.05;19.30;;;2.10;99.90;;;1.01;100.00;103273.25;4169289;28;20026;-79
2023/02/11 04:53:39;;;;;;;34.83;22.55;;;2.00;99.90;;;0.97;100.00;103261.19;4170850;28;20404;-79
2023/02/11 04:55:40;;;;;;;38.75;23.60;;;2.00;99.90;;;0.99;100.00;103263.75;4162617;28;20101;-79
2023/02/11 04:57:41;;;;;;;49.75;31.70;;;2.00;99.90;;;0.97;100.00;103260.34;4154104;28;20029;-79
2023/02/11 04:59:42;;;;;;;36.75;25.02;;;2.00;99.90;;;0.98;100.00;103264.66;4154255;28;20022;-79
2023/02/11 05:01:43;;;;;;;35.88;23.50;;;2.00;99.90;;;1.01;100.00;103259.38;4152917;28;20026;-79
2023/02/11 05:03:44;;;;;;;33.10;22.13;;;2.00;99.90;;;1.01;100.00;103254.19;4159100;28;20045;-79
2023/02/11 05:05:45;;;;;;;31.40;21.48;;;2.00;99.90;;;0.96;100.00;103249.06;4160977;28;20075;-79
2023/02/11 05:07:47;;;;;;;36.45;24.02;;;2.00;99.90;;;0.97;100.00;103253.41;4152668;28;20030;-79
2023/02/11 05:09:48;;;;;;;30.60;21.00;;;2.00;99.90;;;0.95;100.00;103247.38;4153999;28;20681;-79
2023/02/11 05:11:49;;;;;;;30.50;21.67;;;2.00;99.90;;;0.92;100.00;103247.47;4153017;28;20030;-79
2023/02/11 05:13:50;;;;;;;30.25;20.65;;;2.00;99.90;;;0.89;100.00;103247.53;4152864;28;20038;-79
2023/02/11 05:15:52;;;;;;;30.42;21.35;;;1.90;99.90;;;0.90;100.00;103248.34;4152605;28;20037;-79
2023/02/11 05:17:53;;;;;;;31.50;22.55;;;1.90;99.90;;;0.87;100.00;103238.88;4152154;28;20029;-79
2023/02/11 05:19:54;;;;;;;31.73;22.45;;;1.90;99.90;;;0.86;100.00;103232.00;4169337;28;20025;-79
2023/02/11 05:21:55;;;;;;;31.40;22.25;;;1.90;99.90;;;0.85;100.00;103234.63;4152820;28;20076;-79
2023/02/11 05:23:56;;;;;;;32.28;22.17;;;1.90;99.90;;;0.86;100.00;103234.59;4152496;28;20502;-79
2023/02/11 05:25:57;;;;;;;34.63;23.55;;;1.90;99.90;;;0.85;100.00;103234.63;4151304;28;20065;-79
2023/02/11 05:27:57;;;;;;;34.22;21.90;;;1.90;99.90;;;0.89;100.00;103237.13;4170117;28;20547;-79
2023/02/11 05:29:58;;;;;;;33.20;23.95;;;1.90;99.90;;;0.92;100.00;103241.41;4170066;28;20234;-79
2023/02/11 05:31:59;;;;;;;36.53;23.35;;;1.90;99.90;;;0.95;100.00;103241.34;4169948;28;20404;-79
2023/02/11 05:34:02;;;;;;;34.05;23.20;;;1.90;99.90;;;0.97;100.00;103235.22;4169476;28;20033;-79
2023/02/11 05:36:10;;;;;;;40.35;24.60;;;2.00;99.90;;;1.01;100.00;103236.88;4152628;28;20483;-79
2023/02/11 05:38:11;;;;;;;49.00;26.35;;;2.00;99.90;;;1.07;100.00;103241.91;4152377;28;20072;-79
2023/02/11 05:40:13;;;;;;;37.63;25.08;;;2.10;99.90;;;1.11;100.00;103235.75;4152341;28;20030;-79
2023/02/11 05:42:13;;;;;;;39.65;23.30;;;2.10;99.90;;;1.11;100.00;103243.53;4152015;28;20125;-79
2023/02/11 05:44:14;;;;;;;57.58;28.90;;;2.10;99.90;;;1.11;100.00;103251.34;4168462;28;20536;-79
2023/02/11 05:46:16;;;;;;;51.40;26.30;;;2.10;99.90;;;1.10;100.00;103241.00;4153635;28;20025;-79
2023/02/11 05:48:17;;;;;;;58.97;27.27;;;2.10;99.90;;;1.08;100.00;103235.81;4152942;28;20036;-79
2023/02/11 05:50:19;;;;;;;56.38;26.55;;;2.20;99.90;;;1.08;100.00;103238.41;4152054;28;20030;-79
2023/02/11 05:52:23;;;;;;;54.30;27.85;;;2.10;99.90;;;1.05;100.00;103229.81;4152939;28;20034;-79
2023/02/11 05:54:24;;;;;;;;;;;2.10;99.90;;;1.03;100.00;103237.69;4152373;28;20520;-79
2023/02/11 05:56:25;;;;;;;30.60;21.10;;;2.10;99.90;;;1.00;100.00;103229.94;4151949;28;19910;-79
2023/02/11 05:58:26;;;;;;;32.63;21.48;;;2.10;99.90;;;0.96;100.00;103228.28;4153049;28;20493;-79
2023/02/11 06:00:27;;;;;;;36.22;23.17;;;2.00;99.90;;;0.94;100.00;103235.28;4152381;28;20054;-79
2023/02/11 06:02:28;;;;;;;28.33;20.33;;;2.00;99.90;;;0.89;100.00;103226.75;4152160;28;20026;-79
2023/02/11 06:04:29;;;;;;;27.45;19.60;;;2.00;99.90;;;0.89;100.00;103223.28;4147466;28;20033;-80
2023/02/11 06:06:30;;;;;;;33.47;22.67;;;1.90;99.90;;;0.89;100.00;103221.53;4154150;28;20022;-79
2023/02/11 06:08:31;;;;;;;28.15;19.95;;;1.90;99.90;;;0.81;100.00;103218.22;4152130;28;20029;-79
2023/02/11 06:10:32;;;;;;;29.42;20.08;;;1.90;99.90;;;0.80;100.00;103226.94;4151991;28;20026;-79
2023/02/11 06:12:33;;;;;;;29.73;19.92;;;1.90;99.90;;;0.76;100.00;103212.28;4153011;28;20041;-80
2023/02/11 06:14:34;;;;;;;33.92;20.75;;;1.80;99.90;;;0.74;100.00;103216.69;4151864;28;20026;-80
2023/02/11 06:16:36;;;;;;;24.52;19.38;;;1.80;99.90;;;0.72;100.00;103228.81;4157002;28;20480;-79
2023/02/11 06:18:37;;;;;;;28.88;19.98;;;1.80;99.90;;;0.64;100.00;103225.53;4152484;28;20041;-79
2023/02/11 06:20:40;;;;;;;25.23;18.50;;;1.70;99.90;;;0.60;100.00;103223.03;4151697;28;20097;-80
2023/02/11 06:22:41;;;;;;;29.40;19.70;;;1.70;99.90;;;0.55;100.00;103223.13;4154820;28;20021;-80
2023/02/11 06:24:42;;;;;;;30.83;21.10;;;1.60;99.90;;;0.48;100.00;103213.75;4151460;28;20057;-80
2023/02/11 06:26:43;;;;;;;32.08;20.77;;;1.60;99.90;;;0.49;100.00;103218.91;4151696;28;20072;-80
2023/02/11 06:28:44;;;;;;;30.85;20.35;;;1.50;99.90;;;0.49;100.00;103220.66;4135222;28;20037;-79
2023/02/11 06:30:45;;;;;;;27.90;18.35;;;1.60;99.90;;;0.46;100.00;103220.72;4166451;28;20033;-79
2023/02/11 06:32:45;;;;;;;31.05;21.05;;;1.50;99.90;;;0.47;100.00;103227.63;4162860;28;20034;-80
2023/02/11 06:34:46;;;;;;;30.58;21.40;;;1.60;99.90;;;0.49;100.00;103224.13;4152557;28;20029;-80
2023/02/11 06:36:47;;;;;;;29.35;19.98;;;1.50;99.90;;;0.48;100.00;103218.94;4152656;28;20109;-79
2023/02/11 06:38:49;;;;;;;31.65;20.75;;;1.60;99.90;;;0.46;100.00;103220.72;4152445;28;20032;-79
2023/02/11 06:40:50;;;;;;;28.48;19.98;;;1.50;99.90;;;0.42;100.00;103216.47;4151530;28;20104;-80
2023/02/11 06:42:51;;;;;;;33.90;21.15;;;1.50;99.90;;;0.43;100.00;103220.78;4151474;28;20397;-80
2023/02/11 06:44:52;;;;;;;36.88;22.73;;;1.50;99.90;;;0.42;100.00;103227.69;4146450;28;20401;-80
2023/02/11 06:46:53;;;;;;;38.22;22.75;;;1.50;99.90;;;0.42;100.00;103227.69;4152416;28;20029;-79
2023/02/11 06:48:54;;;;;;;37.90;23.50;;;1.50;99.90;;;0.41;100.00;103227.75;4152397;28;20088;-79
2023/02/11 06:50:55;;;;;;;38.83;23.02;;;1.50;99.90;;;0.41;100.00;103230.34;4152552;28;20124;-79
2023/02/11 06:52:58;;;;;;;36.60;22.33;;;1.50;99.90;;;0.40;100.00;103232.09;4152471;28;20077;-80
2023/02/11 06:54:59;;;;;;;34.27;23.23;;;1.50;99.90;;;0.37;100.00;103228.69;4151361;28;20037;-80
2023/02/11 06:57:00;;;;;;;50.83;24.60;;;1.40;99.90;;;0.39;100.00;103227.75;4134931;28;20041;-80
2023/02/11 06:59:02;;;;;;;44.00;25.45;;;1.40;99.90;;;0.41;100.00;103227.75;4166565;28;20017;-80
2023/02/11 07:01:10;;;;;;;34.83;22.52;;;1.40;99.90;;;0.41;100.00;103217.38;4163141;28;20037;-79
2023/02/11 07:03:10;;;;;;;37.85;22.83;;;1.50;99.90;;;0.43;100.00;103219.03;4175517;28;20108;-79
2023/02/11 07:05:11;;;;;;;41.50;23.95;;;1.50;99.90;;;0.41;100.00;103217.38;4190206;28;20030;-79
2023/02/11 07:07:12;;;;;;;58.40;24.25;;;1.50;99.90;;;0.37;100.00;103226.94;4151301;28;20109;-79
2023/02/11 07:09:13;;;;;;;43.50;23.52;;;1.50;99.90;;;0.37;100.00;103226.94;4162640;28;20030;-80
2023/02/11 07:11:18;;;;;;;43.47;23.63;;;1.40;99.90;;;0.36;100.00;103229.59;4153763;28;20033;-79
2023/02/11 07:13:19;;;;;;;34.90;20.75;;;1.40;99.90;;;0.37;100.00;103231.28;4151227;28;20112;-80
2023/02/11 07:15:20;;;;;;;36.53;21.92;;;1.40;99.90;;;0.37;100.00;103232.16;4150970;28;20053;-80
2023/02/11 07:17:21;;;;;;;38.85;21.83;;;1.50;99.90;;;0.32;100.00;103225.34;4152321;28;20040;-79
2023/02/11 07:19:22;;;;;;;36.25;23.55;;;1.50;99.90;;;0.38;100.00;103236.47;4151935;28;20057;-80
2023/02/11 07:21:23;;;;;;;38.97;22.40;;;1.40;99.90;;;0.40;100.00;103236.41;4150891;28;20037;-80
2023/02/11 07:23:24;;;;;;;36.90;22.25;;;1.40;99.90;;;0.39;100.00;103232.97;4152324;28;20022;-80
2023/02/11 07:25:25;;;;;;;38.00;24.25;;;1.50;99.90;;;0.43;100.00;103233.75;4152163;28;20026;-79
2023/02/11 07:27:26;;;;;;;34.83;22.67;;;1.50;99.90;;;0.48;100.00;103245.75;4152154;28;20034;-79
2023/02/11 07:29:27;;;;;;;37.97;22.92;;;1.50;99.90;;;0.52;100.00;103236.16;4168764;28;20040;-80
2023/02/11 07:31:29;;;;;;;37.95;23.70;;;1.50;99.90;;;0.56;100.00;103237.84;4168481;28;20057;-80
2023/02/11 07:33:30;;;;;;;63.25;22.15;;;1.60;99.90;;;0.57;100.00;103239.53;4157180;28;20030;-80
2023/02/11 07:35:31;;;;;;;41.33;20.67;;;1.60;99.90;;;0.64;100.00;103248.91;4164940;28;20574;-80
2023/02/11 07:37:35;;;;;;;29.27;20.08;;;1.70;99.90;;;0.68;100.00;103250.56;4164384;28;20054;-79
2023/02/11 07:39:36;;;;;;;35.83;22.80;;;1.70;99.90;;;0.66;100.00;103251.50;4151022;28;20026;-79
2023/02/11 07:41:37;;;;;;;37.38;22.80;;;1.70;99.90;;;0.67;100.00;103256.63;4158959;28;20028;-79
2023/02/11 07:43:39;;;;;;;37.55;22.55;;;1.70;99.90;;;0.67;100.00;103256.63;4154300;28;20083;-79
2023/02/11 07:45:40;;;;;;;35.05;22.98;;;1.70;99.90;;;0.70;100.00;103253.97;4152502;28;20018;-79
2023/02/11 07:47:41;;;;;;;41.40;24.15;;;1.70;99.90;;;0.70;100.00;103246.19;4167109;28;20037;-79
2023/02/11 07:49:42;;;;;;;37.38;21.58;;;1.80;99.90;;;0.78;100.00;103262.47;4168179;28;20049;-79
2023/02/11 07:51:43;;;;;;;34.85;22.25;;;1.70;99.90;;;0.82;100.00;103266.72;4150541;28;20168;-79
2023/02/11 07:53:45;;;;;;;31.23;20.95;;;1.80;99.90;;;0.89;100.00;103265.72;4168307;28;20078;-80
2023/02/11 07:55:46;;;;;;;27.92;19.95;;;1.90;99.90;;;0.94;100.00;103255.19;4160823;28;20101;-79
2023/02/11 07:57:47;;;;;;;28.10;20.95;;;2.00;99.90;;;1.03;100.00;103260.19;4162727;28;20076;-79
2023/02/11 07:59:48;;;;;;;32.60;21.35;;;2.00;99.90;;;1.13;100.00;103278.16;4164205;28;20420;-80
2023/02/11 08:01:50;;;;;;;32.95;21.65;;;2.10;99.90;;;1.14;100.00;103268.59;4150567;28;20026;-79
2023/02/11 08:03:52;;;;;;;29.55;19.65;;;2.10;99.90;;;1.21;100.00;103279.72;4141109;28;20026;-79
2023/02/11 08:05:53;;;;;;;31.15;20.58;;;2.20;99.90;;;1.27;100.00;103277.84;4167076;28;20026;-79
2023/02/11 08:07:54;;;;;;;36.53;21.88;;;2.30;99.90;;;1.32;100.00;103277.75;4155472;28;20029;-79
2023/02/11 08:09:55;;;;;;;33.75;20.20;;;2.30;99.90;;;1.29;100.00;103267.41;4148392;28;20428;-79
2023/02/11 08:11:56;;;;;;;32.63;21.90;;;2.30;99.90;;;1.42;100.00;103281.84;4167023;28;20033;-79
2023/02/11 08:13:57;;;;;;;30.70;21.25;;;2.40;99.90;;;1.43;100.00;103270.56;4167046;28;20026;-79
2023/02/11 08:15:58;;;;;;;28.55;20.13;;;2.40;99.90;;;1.61;100.00;103288.34;4169255;28;20116;-80
2023/02/11 08:17:58;;;;;;;29.40;20.05;;;2.50;99.90;;;1.70;100.00;103284.66;4154102;28;20033;-82
2023/02/11 08:20:00;;;;;;;25.77;18.80;;;2.60;99.90;;;1.81;100.00;103293.91;4159554;28;20036;-80
2023/02/11 08:22:01;;;;;;;22.60;17.60;;;2.70;99.90;;;1.93;100.00;103298.81;4160275;28;20030;-81
2023/02/11 08:24:02;;;;;;;24.83;18.70;;;2.90;99.90;;;2.01;100.00;103289.06;4156790;28;20038;-81
2023/02/11 08:26:11;;;;;;;21.42;17.08;;;3.00;99.90;;;2.14;100.00;103289.59;4161404;28;20024;-82
2023/02/11 08:28:12;;;;;;;30.30;19.88;;;3.10;99.90;;;2.16;100.00;103291.28;4168839;28;20520;-80
2023/02/11 08:30:13;;;;;;;25.58;17.67;;;3.20;99.90;;;2.22;100.00;103285.91;4177327;28;20040;-80
2023/02/11 08:32:14;;;;;;;30.20;20.70;;;3.30;99.90;;;2.32;100.00;103296.06;4164469;28;20059;-81
2023/02/11 08:34:18;;;;;;;26.63;17.70;;;3.30;99.90;;;2.43;100.00;103294.88;4160290;28;20022;-81
2023/02/11 08:36:23;;;;;;;25.67;19.58;;;3.40;99.90;;;2.54;100.00;103286.78;4151873;28;20030;-82
2023/02/11 08:38:24;;;;;;;;;;;3.50;99.90;;;2.64;100.00;103294.31;4169324;28;20034;-84